Time;durP1;ratioP1;P1;durP2;ratioP2;P2;SDS_P1;SDS_P2;PMS_P1;PMS_P2;Temp;Humidity;BMP_temperature;BMP_pressure;BME280_temperature;BME280_humidity;BME280_pressure;Samples;Min_cycle;Max_cycle;Signal;HPM_P1;HPM_P2
2023/02/25 00:00:29;;;;;;;20.02;18.52;;;4.40;99.90;;;;;;5021130;28;20179;-40
2023/02/25 00:02:57;;;;;;;18.58;17.27;;;4.30;99.90;;;;;;5021560;28;20649;-41
2023/02/25 00:05:23;;;;;;;20.30;18.80;;;4.20;99.90;;;;;;5020849;28;20181;-41
2023/02/25 00:07:49;;;;;;;19.13;17.83;;;4.10;99.90;;;;;;5019855;28;20433;-45
2023/02/25 00:10:14;;;;;;;18.60;17.40;;;3.90;99.90;;;;;;5021099;28;20446;-43
2023/02/25 00:12:41;;;;;;;19.90;18.20;;;3.70;99.90;;;;;;5019165;28;20238;-42
2023/02/25 00:15:08;;;;;;;19.45;17.95;;;3.70;99.90;;;;;;5019653;28;20209;-43
2023/02/25 00:17:36;;;;;;;19.92;18.33;;;3.60;99.90;;;;;;5021029;28;20198;-41
2023/02/25 00:20:03;;;;;;;18.52;17.15;;;3.60;99.90;;;;;;5020439;28;20274;-41
2023/02/25 00:22:29;;;;;;;18.77;17.40;;;3.60;99.90;;;;;;5020747;28;20569;-42
2023/02/25 00:24:55;;;;;;;18.70;17.40;;;3.60;99.90;;;;;;5019255;28;20608;-43
2023/02/25 00:27:22;;;;;;;18.67;17.30;;;3.50;99.90;;;;;;5020627;28;20185;-46
2023/02/25 00:29:51;;;;;;;18.67;17.27;;;3.60;99.90;;;;;;5020299;28;20447;-43
2023/02/25 00:32:17;;;;;;;18.80;17.30;;;3.60;99.90;;;;;;5020555;28;20360;-42
2023/02/25 00:34:43;;;;;;;18.43;17.03;;;3.60;99.90;;;;;;5020399;28;20197;-45
2023/02/25 00:37:08;;;;;;;19.53;18.03;;;3.50;99.90;;;;;;5020550;28;20688;-42
2023/02/25 00:39:42;;;;;;;19.43;17.90;;;3.50;99.90;;;;;;5020447;28;20186;-44
2023/02/25 00:42:13;;;;;;;19.15;17.65;;;3.50;99.90;;;;;;5020619;28;20208;-41
2023/02/25 00:44:42;;;;;;;18.35;17.02;;;3.60;99.90;;;;;;5020137;28;20187;-42
2023/02/25 00:47:07;;;;;;;19.15;17.73;;;3.60;99.90;;;;;;5020182;28;20186;-45
2023/02/25 00:49:33;;;;;;;20.60;18.93;;;3.60;99.90;;;;;;5020531;28;20175;-41
2023/02/25 00:51:59;;;;;;;19.90;18.30;;;3.60;99.90;;;;;;5020600;28;20190;-43
2023/02/25 00:54:25;;;;;;;20.93;19.13;;;3.60;99.90;;;;;;5020693;28;20187;-42
2023/02/25 00:56:50;;;;;;;20.03;18.43;;;3.60;99.90;;;;;;5020246;28;20563;-41
2023/02/25 00:59:16;;;;;;;20.60;18.90;;;3.60;99.90;;;;;;5020201;28;20414;-41
2023/02/25 01:01:41;;;;;;;20.43;18.80;;;3.70;99.90;;;;;;5020194;28;20545;-44
2023/02/25 01:04:08;;;;;;;20.47;18.73;;;3.60;99.90;;;;;;5020012;28;20178;-42
2023/02/25 01:06:36;;;;;;;20.65;18.73;;;3.60;99.90;;;;;;5019627;28;20245;-41
2023/02/25 01:09:05;;;;;;;21.60;19.75;;;3.70;99.90;;;;;;5018908;28;20182;-41
2023/02/25 01:11:34;;;;;;;22.02;19.98;;;3.80;99.90;;;;;;5019522;28;20194;-42
2023/02/25 01:14:03;;;;;;;21.23;19.33;;;3.80;99.90;;;;;;5018691;28;20240;-42
2023/02/25 01:16:31;;;;;;;20.15;18.45;;;3.80;99.90;;;;;;5019977;28;20752;-43
2023/02/25 01:18:59;;;;;;;21.27;19.40;;;3.90;99.90;;;;;;5020241;28;20194;-41
2023/02/25 01:21:28;;;;;;;20.55;19.00;;;3.80;99.90;;;;;;5019493;28;20191;-41
2023/02/25 01:24:00;;;;;;;21.58;19.70;;;3.90;99.90;;;;;;5019520;28;20520;-42
2023/02/25 01:26:28;;;;;;;22.67;20.48;;;3.90;99.90;;;;;;5019681;28;20175;-41
2023/02/25 01:28:54;;;;;;;22.42;20.25;;;3.90;99.90;;;;;;5018120;28;20186;-42
2023/02/25 01:31:27;;;;;;;19.95;18.20;;;3.80;99.90;;;;;;5019142;28;20236;-42
2023/02/25 01:33:57;;;;;;;21.63;19.73;;;3.80;99.90;;;;;;5019467;28;20220;-42
2023/02/25 01:36:23;;;;;;;19.02;17.38;;;3.90;99.90;;;;;;5018531;28;20210;-42
2023/02/25 01:38:49;;;;;;;20.90;19.20;;;3.90;99.90;;;;;;5019374;28;20186;-44
2023/02/25 01:41:15;;;;;;;20.10;18.50;;;3.90;99.90;;;;;;5019398;28;20994;-42
2023/02/25 01:43:41;;;;;;;19.50;18.00;;;4.00;99.90;;;;;;5019224;28;20237;-42
2023/02/25 01:46:07;;;;;;;20.60;18.83;;;4.00;99.90;;;;;;5019237;28;20186;-42
2023/02/25 01:48:37;;;;;;;19.83;18.30;;;4.00;99.90;;;;;;5019573;28;20420;-41
2023/02/25 01:51:11;;;;;;;20.77;18.77;;;4.00;99.90;;;;;;5018725;28;20183;-44
2023/02/25 01:53:44;;;;;;;20.38;18.50;;;4.10;99.90;;;;;;5019773;28;20597;-41
2023/02/25 01:56:13;;;;;;;20.58;18.98;;;4.20;99.90;;;;;;5019112;28;20225;-46
2023/02/25 01:58:39;;;;;;;19.85;18.20;;;4.10;99.90;;;;;;5019091;28;20190;-46
2023/02/25 02:01:09;;;;;;;19.52;18.08;;;4.20;99.90;;;;;;5019281;28;20208;-43
2023/02/25 02:03:37;;;;;;;20.17;18.65;;;4.20;99.90;;;;;;5018876;28;20196;-46
2023/02/25 02:06:11;;;;;;;20.30;18.60;;;4.00;99.90;;;;;;5018357;28;20195;-46
2023/02/25 02:08:37;;;;;;;19.92;18.52;;;4.00;99.90;;;;;;5019003;28;20421;-48
2023/02/25 02:11:03;;;;;;;18.77;17.48;;;4.10;99.90;;;;;;5017733;28;20244;-47
2023/02/25 02:13:32;;;;;;;19.83;18.42;;;4.00;99.90;;;;;;5019085;28;20226;-45
2023/02/25 02:16:06;;;;;;;19.73;18.00;;;4.10;99.90;;;;;;5019354;28;20199;-45
2023/02/25 02:18:34;;;;;;;18.98;17.55;;;4.10;99.90;;;;;;5019502;28;20182;-45
2023/02/25 02:21:21;;;;;;;18.55;16.92;;;4.10;99.90;;;;;;5019838;28;20261;-44
2023/02/25 02:23:58;;;;;;;18.35;16.92;;;4.10;99.90;;;;;;5023318;28;20702;-47
2023/02/25 02:26:56;;;;;;;18.83;17.10;;;4.20;99.90;;;;;;5022763;28;20265;-48
2023/02/25 02:29:28;;;;;;;18.27;16.88;;;4.20;99.90;;;;;;5022750;28;20185;-47
2023/02/25 02:32:11;;;;;;;18.10;16.75;;;4.10;99.90;;;;;;5022129;28;20552;-45
2023/02/25 02:35:00;;;;;;;17.25;16.02;;;4.10;99.90;;;;;;5022578;28;20947;-45
2023/02/25 02:37:46;;;;;;;17.85;16.35;;;4.20;99.90;;;;;;5022923;28;20195;-47
2023/02/25 02:40:37;;;;;;;17.85;16.35;;;4.20;99.90;;;;;;5022505;28;20323;-46
2023/02/25 02:43:17;;;;;;;16.65;15.55;;;4.20;99.90;;;;;;5022568;28;20263;-47
2023/02/25 02:46:17;;;;;;;18.10;16.30;;;4.20;99.90;;;;;;5022596;28;20232;-47
2023/02/25 02:48:47;;;;;;;16.80;15.63;;;4.10;99.90;;;;;;5016223;28;20243;-47
2023/02/25 02:51:23;;;;;;;17.17;16.05;;;4.10;99.90;;;;;;5022189;28;20183;-44
2023/02/25 02:53:54;;;;;;;17.17;15.80;;;4.10;99.90;;;;;;5022133;28;20281;-45
2023/02/25 02:56:21;;;;;;;16.55;15.45;;;4.10;99.90;;;;;;5022045;28;20687;-48
2023/02/25 02:58:52;;;;;;;18.30;16.77;;;4.10;99.90;;;;;;5022078;28;20261;-48
2023/02/25 03:01:26;;;;;;;16.52;15.60;;;4.10;99.90;;;;;;5022194;28;20710;-46
2023/02/25 03:04:02;;;;;;;18.00;16.70;;;4.10;99.90;;;;;;5022625;28;20170;-44
2023/02/25 03:06:37;;;;;;;17.15;16.05;;;4.00;99.90;;;;;;5022350;28;20212;-44
2023/02/25 03:09:09;;;;;;;16.70;15.60;;;4.00;99.90;;;;;;5021232;28;21158;-44
2023/02/25 03:11:34;;;;;;;17.23;15.82;;;3.90;99.90;;;;;;5022162;28;20199;-45
2023/02/25 03:14:00;;;;;;;17.10;15.80;;;3.90;99.90;;;;;;5022100;28;20696;-44
2023/02/25 03:17:00;;;;;;;16.85;15.50;;;3.90;99.90;;;;;;5022090;28;20210;-43
2023/02/25 03:19:32;;;;;;;16.75;15.55;;;3.90;99.90;;;;;;5022213;28;20182;-45
2023/02/25 03:22:06;;;;;;;16.63;15.32;;;3.90;99.90;;;;;;5020430;28;20189;-45
2023/02/25 03:24:38;;;;;;;16.95;15.75;;;3.90;99.90;;;;;;5021339;28;20179;-44
2023/02/25 03:27:25;;;;;;;16.35;15.25;;;3.90;99.90;;;;;;5021890;28;20691;-45
2023/02/25 03:29:56;;;;;;;15.45;14.40;;;3.90;99.90;;;;;;5021661;28;20195;-48
2023/02/25 03:32:24;;;;;;;16.27;15.25;;;3.90;99.90;;;;;;5020882;28;20257;-44
2023/02/25 03:34:56;;;;;;;16.45;15.00;;;4.00;99.90;;;;;;5021574;28;20229;-45
2023/02/25 03:37:27;;;;;;;16.10;14.90;;;3.90;99.90;;;;;;5020666;28;20236;-48
2023/02/25 03:39:58;;;;;;;16.13;14.63;;;3.90;99.90;;;;;;5021554;28;20214;-42
2023/02/25 03:42:29;;;;;;;15.50;14.60;;;3.90;99.90;;;;;;5021294;28;20568;-45
2023/02/25 03:44:59;;;;;;;16.15;15.02;;;3.90;99.90;;;;;;5021210;28;20434;-44
2023/02/25 03:47:28;;;;;;;15.80;14.70;;;3.90;99.90;;;;;;5021479;28;20185;-44
2023/02/25 03:50:01;;;;;;;16.08;14.93;;;3.90;99.90;;;;;;5021278;28;20684;-46
2023/02/25 03:52:28;;;;;;;14.82;13.88;;;3.90;99.90;;;;;;5021515;28;20178;-47
2023/02/25 03:54:55;;;;;;;15.20;14.10;;;3.90;99.90;;;;;;5021291;28;20171;-42
2023/02/25 03:57:28;;;;;;;15.93;14.98;;;3.80;99.90;;;;;;5021221;28;20210;-43
2023/02/25 03:59:55;;;;;;;15.38;14.00;;;3.90;99.90;;;;;;5021148;28;20186;-46
2023/02/25 04:02:27;;;;;;;16.05;14.80;;;3.80;99.90;;;;;;5020805;28;20262;-47
2023/02/25 04:04:53;;;;;;;16.20;14.95;;;3.80;99.90;;;;;;5020997;28;20187;-45
2023/02/25 04:07:18;;;;;;;15.37;14.37;;;3.80;99.90;;;;;;5020725;28;20522;-42
2023/02/25 04:09:44;;;;;;;15.20;14.40;;;3.70;99.90;;;;;;5020742;28;20409;-45
2023/02/25 04:12:09;;;;;;;15.97;14.90;;;3.70;99.90;;;;;;5021141;28;20231;-45
2023/02/25 04:14:35;;;;;;;15.87;14.83;;;3.60;99.90;;;;;;5021114;28;20660;-44
2023/02/25 04:17:03;;;;;;;16.10;14.87;;;3.70;99.90;;;;;;5020905;28;20700;-47
2023/02/25 04:19:29;;;;;;;15.70;14.60;;;3.60;99.90;;;;;;5020780;28;20675;-45
2023/02/25 04:21:55;;;;;;;15.00;14.10;;;3.60;99.90;;;;;;5020808;28;20190;-48
2023/02/25 04:24:20;;;;;;;14.97;14.00;;;3.60;99.90;;;;;;5019322;28;20969;-48
2023/02/25 04:26:46;;;;;;;16.67;15.47;;;3.60;99.90;;;;;;5020835;28;20201;-44
2023/02/25 04:29:11;;;;;;;16.30;14.87;;;3.60;99.90;;;;;;5020730;28;20633;-46
2023/02/25 04:31:37;;;;;;;15.73;14.77;;;3.70;99.90;;;;;;5020648;28;20213;-46
2023/02/25 04:34:03;;;;;;;15.30;14.40;;;3.60;99.90;;;;;;5020644;28;20190;-47
2023/02/25 04:36:30;;;;;;;16.00;15.07;;;3.60;99.90;;;;;;5019747;28;20544;-47
2023/02/25 04:38:58;;;;;;;15.10;14.30;;;3.70;99.90;;;;;;5019632;28;20221;-47
2023/02/25 04:41:28;;;;;;;16.17;14.90;;;3.60;99.90;;;;;;5020420;28;20641;-44
2023/02/25 04:43:54;;;;;;;15.02;14.13;;;3.50;99.90;;;;;;5020390;28;20214;-46
2023/02/25 04:46:20;;;;;;;14.97;14.17;;;3.50;99.90;;;;;;5020381;28;20282;-46
2023/02/25 04:48:45;;;;;;;14.50;13.70;;;3.40;99.90;;;;;;5020394;28;20190;-47
2023/02/25 04:51:11;;;;;;;14.10;13.30;;;3.40;99.90;;;;;;5020993;28;20690;-48
2023/02/25 04:53:36;;;;;;;13.93;13.20;;;3.30;99.90;;;;;;5020117;28;20448;-44
2023/02/25 04:56:04;;;;;;;14.17;13.47;;;3.30;99.90;;;;;;5020225;28;20198;-44
2023/02/25 04:58:32;;;;;;;14.65;13.85;;;3.20;99.90;;;;;;5019844;28;20190;-45
2023/02/25 05:01:00;;;;;;;13.90;13.10;;;3.20;99.90;;;;;;5020026;28;20656;-46
2023/02/25 05:03:26;;;;;;;14.07;13.25;;;3.10;99.90;;;;;;5020052;28;20182;-45
2023/02/25 05:05:51;;;;;;;14.43;13.63;;;3.00;99.90;;;;;;5018616;28;20664;-45
2023/02/25 05:08:17;;;;;;;14.63;13.70;;;3.00;99.90;;;;;;5018199;28;20244;-46
2023/02/25 05:10:43;;;;;;;14.25;13.45;;;2.90;99.90;;;;;;5019960;28;20185;-43
2023/02/25 05:13:09;;;;;;;14.77;13.87;;;2.90;99.90;;;;;;5019247;28;20234;-44
2023/02/25 05:15:34;;;;;;;14.70;13.90;;;3.00;99.90;;;;;;5018674;28;20293;-48
2023/02/25 05:18:00;;;;;;;14.60;13.70;;;3.00;99.90;;;;;;5020185;28;20241;-43
2023/02/25 05:20:25;;;;;;;13.70;13.00;;;3.00;99.90;;;;;;5018612;28;20191;-46
2023/02/25 05:22:51;;;;;;;14.77;13.97;;;3.00;99.90;;;;;;5019871;28;20198;-45
2023/02/25 05:25:17;;;;;;;14.57;13.77;;;3.00;99.90;;;;;;5019969;28;20191;-44
2023/02/25 05:27:42;;;;;;;14.50;13.80;;;2.90;99.90;;;;;;5018536;28;20575;-49
2023/02/25 05:30:08;;;;;;;13.93;13.23;;;2.90;99.90;;;;;;5019839;28;20189;-44
2023/02/25 05:32:34;;;;;;;14.70;13.90;;;2.90;99.90;;;;;;5019431;28;20281;-46
2023/02/25 05:35:00;;;;;;;14.70;13.80;;;2.80;99.90;;;;;;5019870;28;20795;-45
2023/02/25 05:37:26;;;;;;;14.60;13.80;;;2.90;99.90;;;;;;5019410;28;20673;-45
2023/02/25 05:39:51;;;;;;;14.20;13.30;;;2.90;99.90;;;;;;5019944;28;20193;-45
2023/02/25 05:42:17;;;;;;;14.83;13.97;;;2.80;99.90;;;;;;5018862;28;20189;-45
2023/02/25 05:44:43;;;;;;;14.07;13.30;;;2.80;99.90;;;;;;5018925;28;20207;-48
2023/02/25 05:47:08;;;;;;;14.87;13.90;;;2.70;99.90;;;;;;5018566;28;20329;-46
2023/02/25 05:49:34;;;;;;;14.30;13.50;;;2.60;99.90;;;;;;5019319;28;20276;-49
2023/02/25 05:51:59;;;;;;;14.30;13.40;;;2.70;99.90;;;;;;5019525;28;20197;-44
2023/02/25 05:54:25;;;;;;;13.93;13.10;;;2.70;99.90;;;;;;5019284;28;20186;-47
2023/02/25 05:56:51;;;;;;;14.80;14.00;;;2.70;99.90;;;;;;5021956;28;20637;-43
2023/02/25 05:59:17;;;;;;;15.10;14.10;;;2.70;99.90;;;;;;5024071;28;20564;-44
2023/02/25 06:01:43;;;;;;;14.30;13.50;;;2.70;99.90;;;;;;5022629;28;20271;-43
2023/02/25 06:04:09;;;;;;;15.82;14.88;;;2.60;99.90;;;;;;5023616;28;20814;-46
2023/02/25 06:06:35;;;;;;;15.27;14.38;;;2.60;99.90;;;;;;5023257;28;20243;-44
2023/02/25 06:09:04;;;;;;;14.95;14.05;;;2.70;99.90;;;;;;5021135;28;20620;-45
2023/02/25 06:11:32;;;;;;;14.70;13.90;;;2.70;99.90;;;;;;5021954;28;20196;-44
2023/02/25 06:13:58;;;;;;;14.70;13.80;;;2.70;99.90;;;;;;5023440;28;20260;-45
2023/02/25 06:16:30;;;;;;;14.70;13.80;;;2.60;99.90;;;;;;5022657;28;20209;-44
2023/02/25 06:18:58;;;;;;;14.65;13.75;;;2.60;99.90;;;;;;5023061;28;20181;-44
2023/02/25 06:21:23;;;;;;;14.60;13.65;;;2.60;99.90;;;;;;5022749;28;20586;-45
2023/02/25 06:23:49;;;;;;;13.70;13.00;;;2.60;99.90;;;;;;5023138;28;20193;-44
2023/02/25 06:26:15;;;;;;;14.00;13.20;;;2.60;99.90;;;;;;5023593;28;20765;-46
2023/02/25 06:28:41;;;;;;;14.05;13.25;;;2.60;99.90;;;;;;5022948;28;20196;-42
2023/02/25 06:31:13;;;;;;;14.73;13.93;;;2.60;99.90;;;;;;5022531;28;20182;-44
2023/02/25 06:33:39;;;;;;;14.63;13.73;;;2.60;99.90;;;;;;5022813;28;20432;-48
2023/02/25 06:36:06;;;;;;;14.93;14.03;;;2.60;99.90;;;;;;5022676;28;20221;-47
2023/02/25 06:38:33;;;;;;;15.70;14.70;;;2.50;99.90;;;;;;5022448;28;20514;-46
2023/02/25 06:40:59;;;;;;;16.25;15.00;;;2.70;99.90;;;;;;5022357;28;20663;-45
2023/02/25 06:43:25;;;;;;;15.75;14.77;;;2.70;99.90;;;;;;5023173;28;20221;-43
2023/02/25 06:45:50;;;;;;;16.77;15.57;;;2.70;99.90;;;;;;5022383;28;20619;-44
2023/02/25 06:48:16;;;;;;;16.30;15.20;;;2.70;99.90;;;;;;5022722;28;20464;-46
2023/02/25 06:50:41;;;;;;;17.27;15.97;;;2.70;99.90;;;;;;5022167;28;20619;-44
2023/02/25 06:53:07;;;;;;;17.07;15.80;;;2.70;99.90;;;;;;5022867;28;20185;-46
2023/02/25 06:55:33;;;;;;;16.50;15.40;;;2.70;99.90;;;;;;5022077;28;20224;-46
2023/02/25 06:57:59;;;;;;;17.43;16.17;;;2.70;99.90;;;;;;5021041;28;20271;-47
2023/02/25 07:00:25;;;;;;;16.60;15.50;;;2.80;99.90;;;;;;5021496;28;20530;-44
2023/02/25 07:02:50;;;;;;;17.10;15.90;;;2.80;99.90;;;;;;5020633;28;20190;-44
2023/02/25 07:05:16;;;;;;;17.00;15.90;;;2.90;99.90;;;;;;5022480;28;20656;-45
2023/02/25 07:07:42;;;;;;;16.73;15.63;;;2.90;99.90;;;;;;5021797;28;20247;-43
2023/02/25 07:10:10;;;;;;;16.77;15.67;;;2.80;99.90;;;;;;5019466;28;20190;-44
2023/02/25 07:12:35;;;;;;;17.23;15.90;;;2.90;99.90;;;;;;5020408;28;20233;-44
2023/02/25 07:15:01;;;;;;;17.03;15.70;;;3.00;99.90;;;;;;5021135;28;20192;-44
2023/02/25 07:17:28;;;;;;;17.25;16.02;;;3.00;99.90;;;;;;5021500;28;20271;-46
2023/02/25 07:19:55;;;;;;;16.40;15.30;;;3.00;99.90;;;;;;5021634;28;20191;-47
2023/02/25 07:22:20;;;;;;;15.90;14.80;;;3.00;99.90;;;;;;5021171;28;20186;-43
2023/02/25 07:24:46;;;;;;;16.10;15.07;;;3.00;99.90;;;;;;5021316;28;20205;-43
2023/02/25 07:27:12;;;;;;;16.50;15.40;;;3.00;99.90;;;;;;5021237;28;20193;-45
2023/02/25 07:29:39;;;;;;;16.20;15.00;;;3.00;99.90;;;;;;5021380;28;21013;-46
2023/02/25 07:32:05;;;;;;;17.10;15.90;;;3.10;99.90;;;;;;5021303;28;20679;-43
2023/02/25 07:34:30;;;;;;;19.65;18.35;;;3.00;99.90;;;;;;5021339;28;20183;-45
2023/02/25 07:36:56;;;;;;;15.80;14.70;;;3.10;99.90;;;;;;5022030;28;20204;-43
2023/02/25 07:39:21;;;;;;;15.80;14.80;;;3.10;99.90;;;;;;5019772;28;20201;-45
2023/02/25 07:41:47;;;;;;;21.70;19.90;;;3.10;99.90;;;;;;5021588;28;20815;-47
2023/02/25 07:44:13;;;;;;;16.30;15.20;;;3.10;99.90;;;;;;5011089;28;20439;-45
2023/02/25 07:46:40;;;;;;;21.77;19.97;;;3.20;99.90;;;;;;5019973;28;20216;-46
2023/02/25 07:49:06;;;;;;;37.35;33.55;;;3.20;99.90;;;;;;5021409;28;20182;-48
2023/02/25 07:51:32;;;;;;;16.02;14.80;;;3.20;99.90;;;;;;5022035;28;20535;-46
2023/02/25 07:53:59;;;;;;;35.13;31.77;;;3.20;99.90;;;;;;5021423;28;20187;-44
2023/02/25 07:56:27;;;;;;;17.35;16.15;;;3.20;99.90;;;;;;5021197;28;20534;-47
2023/02/25 07:58:53;;;;;;;15.98;15.05;;;3.20;99.90;;;;;;5020815;28;20178;-44
2023/02/25 08:01:24;;;;;;;15.23;14.33;;;3.20;99.90;;;;;;5021110;28;20595;-43
2023/02/25 08:03:51;;;;;;;15.90;14.90;;;3.30;99.90;;;;;;5020408;28;20276;-43
2023/02/25 08:06:18;;;;;;;18.90;17.33;;;3.30;99.90;;;;;;5020642;28;20187;-43
2023/02/25 08:08:43;;;;;;;15.68;14.55;;;3.20;99.90;;;;;;5020737;28;20186;-42
2023/02/25 08:11:11;;;;;;;17.23;16.03;;;3.20;99.90;;;;;;5021145;28;20704;-44
2023/02/25 08:13:37;;;;;;;16.65;15.55;;;3.10;99.90;;;;;;5020810;28;20264;-43
2023/02/25 08:16:05;;;;;;;21.27;19.48;;;3.20;99.90;;;;;;5021235;28;20213;-44
2023/02/25 08:18:30;;;;;;;16.83;15.55;;;3.10;99.90;;;;;;5021245;28;20627;-46
2023/02/25 08:20:57;;;;;;;16.30;15.03;;;3.10;99.90;;;;;;5021066;28;20182;-46
2023/02/25 08:23:23;;;;;;;16.77;15.63;;;3.20;99.90;;;;;;5020822;28;20174;-47
2023/02/25 08:25:57;;;;;;;16.48;15.30;;;3.20;99.90;;;;;;5020635;28;20185;-46
2023/02/25 08:28:25;;;;;;;18.70;17.30;;;3.10;99.90;;;;;;5018979;28;20193;-45
2023/02/25 08:30:51;;;;;;;16.42;15.32;;;3.10;99.90;;;;;;5019368;28;20627;-43
2023/02/25 08:33:17;;;;;;;16.45;15.25;;;3.10;99.90;;;;;;5018537;28;20700;-44
2023/02/25 08:35:43;;;;;;;17.20;16.13;;;3.10;99.90;;;;;;5019535;28;20268;-44
2023/02/25 08:38:11;;;;;;;16.95;15.85;;;3.10;99.90;;;;;;5018741;28;20273;-44
2023/02/25 08:40:38;;;;;;;16.40;15.20;;;3.20;99.90;;;;;;5019303;28;20183;-45
2023/02/25 08:43:04;;;;;;;16.85;15.65;;;3.30;99.90;;;;;;5019743;28;20262;-43
2023/02/25 08:45:30;;;;;;;16.48;15.38;;;3.20;99.90;;;;;;5017972;28;20179;-45
2023/02/25 08:47:55;;;;;;;16.90;15.77;;;3.20;99.90;;;;;;5019288;28;20866;-46
2023/02/25 08:50:22;;;;;;;16.17;15.10;;;3.20;99.90;;;;;;5019230;28;20202;-46
2023/02/25 08:52:49;;;;;;;16.52;15.52;;;3.10;99.90;;;;;;5019234;28;20554;-44
2023/02/25 08:55:15;;;;;;;16.67;15.43;;;3.10;99.90;;;;;;5017463;28;20193;-43
2023/02/25 08:57:41;;;;;;;15.60;14.40;;;3.10;99.90;;;;;;5019275;28;20175;-43
2023/02/25 09:00:09;;;;;;;16.20;15.20;;;3.20;99.90;;;;;;5018476;28;20187;-43
2023/02/25 09:02:35;;;;;;;14.90;13.90;;;3.20;99.90;;;;;;5019565;28;20178;-44
2023/02/25 09:05:01;;;;;;;16.53;15.33;;;3.30;99.90;;;;;;5018925;28;20190;-47
2023/02/25 09:07:26;;;;;;;16.73;15.43;;;3.40;99.90;;;;;;5019392;28;20436;-46
2023/02/25 09:09:52;;;;;;;16.47;15.37;;;3.40;99.90;;;;;;5018745;28;20668;-43
2023/02/25 09:12:18;;;;;;;15.90;14.80;;;3.50;99.90;;;;;;5019608;28;20240;-44
2023/02/25 09:14:43;;;;;;;15.77;14.73;;;3.50;99.90;;;;;;5019784;28;20190;-44
2023/02/25 09:17:09;;;;;;;14.63;13.70;;;3.50;99.90;;;;;;5018844;28;20228;-44
2023/02/25 09:19:37;;;;;;;14.93;14.00;;;3.60;99.90;;;;;;5018897;28;20585;-43
2023/02/25 09:22:04;;;;;;;15.02;14.13;;;3.60;99.90;;;;;;5018996;28;20429;-48
2023/02/25 09:24:32;;;;;;;14.68;13.77;;;3.60;99.90;;;;;;5017884;28;20182;-43
2023/02/25 09:26:59;;;;;;;14.65;13.85;;;3.70;99.90;;;;;;5018419;28;20185;-48
2023/02/25 09:29:26;;;;;;;13.75;13.05;;;3.70;99.90;;;;;;5019054;28;20186;-47
2023/02/25 09:31:52;;;;;;;12.93;12.30;;;3.70;99.90;;;;;;5018226;28;20179;-46
2023/02/25 09:34:19;;;;;;;13.70;13.00;;;3.60;99.90;;;;;;5018557;28;20193;-44
2023/02/25 09:36:45;;;;;;;13.80;13.00;;;3.60;99.90;;;;;;5018120;28;20303;-45
2023/02/25 09:39:11;;;;;;;14.23;13.45;;;3.50;99.90;;;;;;5018050;28;20183;-48
2023/02/25 09:41:55;;;;;;;13.25;12.55;;;3.50;99.90;;;;;;5018626;28;20186;-47
2023/02/25 09:44:39;;;;;;;14.95;14.15;;;3.60;99.90;;;;;;5018540;28;20656;-44
2023/02/25 09:47:11;;;;;;;13.10;12.50;;;3.40;99.90;;;;;;5017510;28;20289;-46
2023/02/25 09:49:41;;;;;;;13.40;12.70;;;3.30;99.90;;;;;;5018068;28;20183;-43
2023/02/25 09:52:27;;;;;;;13.63;12.93;;;3.30;99.90;;;;;;5017507;28;20547;-45
2023/02/25 09:54:59;;;;;;;13.90;13.20;;;3.30;99.90;;;;;;5018460;28;20550;-44
2023/02/25 09:57:28;;;;;;;14.88;14.07;;;3.30;99.90;;;;;;5018557;28;20205;-49
2023/02/25 09:59:54;;;;;;;14.55;13.75;;;3.20;99.90;;;;;;5018033;28;20175;-47
2023/02/25 10:02:58;;;;;;;14.13;13.43;;;3.20;99.90;;;;;;5017994;28;20194;-46
2023/02/25 10:05:32;;;;;;;14.82;14.02;;;3.30;99.90;;;;;;5018436;28;20233;-45
2023/02/25 10:07:57;;;;;;;14.20;13.50;;;3.20;99.90;;;;;;5005955;28;20173;-47
2023/02/25 10:10:33;;;;;;;13.60;12.90;;;3.20;99.90;;;;;;5007880;28;20193;-51
2023/02/25 10:13:17;;;;;;;14.23;13.35;;;3.20;99.90;;;;;;5001039;28;20534;-47
2023/02/25 10:16:03;;;;;;;14.90;13.90;;;3.10;99.90;;;;;;5006960;28;20217;-46
2023/02/25 10:18:53;;;;;;;13.85;13.20;;;3.20;99.90;;;;;;5017599;28;20181;-46
2023/02/25 10:21:28;;;;;;;13.90;13.20;;;3.10;99.90;;;;;;5015213;28;20240;-45
2023/02/25 10:24:20;;;;;;;13.90;12.98;;;3.00;99.90;;;;;;5019033;28;20596;-42
2023/02/25 10:26:50;;;;;;;13.98;13.27;;;3.00;99.90;;;;;;5018860;28;20192;-42
2023/02/25 10:29:27;;;;;;;14.73;13.88;;;3.00;99.90;;;;;;5016216;28;20186;-43
2023/02/25 10:31:57;;;;;;;14.52;13.45;;;2.90;99.90;;;;;;5016753;28;20260;-43
2023/02/25 10:34:26;;;;;;;13.95;13.25;;;3.00;99.90;;;;;;5007038;28;20765;-41
2023/02/25 10:36:55;;;;;;;14.63;13.82;;;3.00;99.90;;;;;;5006053;28;20779;-41
2023/02/25 10:39:22;;;;;;;13.93;13.23;;;3.00;99.90;;;;;;5006162;28;20729;-43
2023/02/25 10:41:48;;;;;;;13.80;13.10;;;3.00;99.90;;;;;;5015852;28;20292;-47
2023/02/25 10:44:14;;;;;;;14.10;13.40;;;3.00;99.90;;;;;;5020600;28;20692;-42
2023/02/25 10:46:50;;;;;;;13.20;12.50;;;3.00;99.90;;;;;;5022578;28;20186;-41
2023/02/25 10:49:26;;;;;;;14.00;13.30;;;2.90;99.90;;;;;;5021470;28;20447;-41
2023/02/25 10:52:04;;;;;;;14.27;13.48;;;2.90;99.90;;;;;;5019650;28;20188;-42
2023/02/25 10:54:32;;;;;;;13.75;13.05;;;3.00;99.90;;;;;;5020273;28;20267;-41
2023/02/25 10:57:01;;;;;;;13.95;13.25;;;3.10;99.90;;;;;;5021887;28;20683;-44
2023/02/25 10:59:37;;;;;;;13.60;12.93;;;3.10;99.90;;;;;;5021013;28;20198;-43
2023/02/25 11:02:24;;;;;;;13.70;13.00;;;3.10;99.90;;;;;;5022367;28;20900;-42
2023/02/25 11:04:51;;;;;;;13.70;13.00;;;3.10;99.90;;;;;;5022360;28;20186;-45
2023/02/25 11:07:38;;;;;;;13.60;13.00;;;3.10;99.90;;;;;;5020252;28;20185;-45
2023/02/25 11:10:15;;;;;;;13.30;12.48;;;3.00;99.90;;;;;;5021356;28;20201;-44
2023/02/25 11:12:51;;;;;;;13.27;12.60;;;3.00;99.90;;;;;;5019807;28;21200;-42
2023/02/25 11:15:25;;;;;;;12.30;11.60;;;3.10;99.90;;;;;;5022265;28;20205;-43
2023/02/25 11:17:53;;;;;;;13.00;12.30;;;3.00;99.90;;;;;;5021808;28;20177;-46
2023/02/25 11:20:28;;;;;;;13.68;12.95;;;2.90;99.90;;;;;;5020926;28;20190;-45
2023/02/25 11:22:55;;;;;;;12.80;12.18;;;2.90;99.90;;;;;;5022275;28;20193;-45
2023/02/25 11:25:44;;;;;;;13.80;13.10;;;3.00;99.90;;;;;;5020671;28;20190;-48
2023/02/25 11:28:34;;;;;;;13.18;12.32;;;3.10;99.90;;;;;;5019047;28;20185;-41
2023/02/25 11:31:14;;;;;;;13.15;12.55;;;3.20;99.90;;;;;;5021415;28;20186;-45
2023/02/25 11:33:44;;;;;;;14.50;13.70;;;3.40;99.90;;;;;;5020526;28;20196;-41
2023/02/25 11:36:11;;;;;;;13.32;12.55;;;3.40;99.90;;;;;;5021690;28;20202;-47
2023/02/25 11:38:40;;;;;;;14.02;13.23;;;3.40;99.90;;;;;;5020477;28;20201;-42
2023/02/25 11:41:22;;;;;;;14.60;13.80;;;3.40;99.90;;;;;;5020948;28;20263;-42
2023/02/25 11:43:49;;;;;;;15.32;14.43;;;3.30;99.90;;;;;;5020841;28;20238;-46
2023/02/25 11:46:23;;;;;;;16.80;15.80;;;3.30;99.90;;;;;;5020834;28;20217;-41
2023/02/25 11:49:04;;;;;;;15.80;14.90;;;3.30;99.90;;;;;;5021033;28;20216;-44
2023/02/25 11:51:47;;;;;;;15.70;14.82;;;3.30;99.90;;;;;;5019457;28;20200;-42
2023/02/25 11:54:34;;;;;;;15.48;14.57;;;3.40;99.90;;;;;;5019217;28;20191;-42
2023/02/25 11:57:20;;;;;;;15.82;14.93;;;3.30;99.90;;;;;;5020682;28;20199;-42
2023/02/25 12:00:18;;;;;;;16.15;15.25;;;3.20;99.90;;;;;;5020373;28;20190;-42
2023/02/25 12:03:20;;;;;;;16.30;15.20;;;3.20;99.90;;;;;;5020681;28;20187;-42
2023/02/25 12:05:57;;;;;;;15.07;14.15;;;3.20;99.90;;;;;;5020982;28;20184;-46
2023/02/25 12:08:36;;;;;;;15.35;14.35;;;3.30;99.90;;;;;;5020046;28;20397;-42
2023/02/25 12:11:35;;;;;;;16.10;15.10;;;3.30;99.90;;;;;;5020845;28;20643;-43
2023/02/25 12:14:13;;;;;;;15.80;14.80;;;3.30;99.90;;;;;;5018996;28;20289;-43
2023/02/25 12:17:09;;;;;;;14.52;13.63;;;3.20;99.90;;;;;;5020190;28;20201;-42
2023/02/25 12:19:49;;;;;;;15.43;14.57;;;3.20;99.90;;;;;;5019789;28;20181;-42
2023/02/25 12:22:25;;;;;;;15.27;14.32;;;3.20;99.90;;;;;;5018551;28;20181;-41
2023/02/25 12:25:13;;;;;;;16.50;15.50;;;3.30;99.90;;;;;;5019750;28;20578;-44
2023/02/25 12:28:07;;;;;;;15.85;14.90;;;3.30;99.90;;;;;;5019930;28;20167;-41
2023/02/25 12:30:41;;;;;;;14.82;13.82;;;3.20;99.90;;;;;;5019722;28;20185;-47
2023/02/25 12:33:15;;;;;;;18.05;16.95;;;3.20;99.90;;;;;;5019875;28;20192;-41
2023/02/25 12:35:41;;;;;;;14.60;13.82;;;3.20;99.90;;;;;;5020133;28;20296;-42
2023/02/25 12:38:44;;;;;;;15.03;14.13;;;3.20;99.90;;;;;;5020109;28;20315;-42
2023/02/25 12:41:37;;;;;;;14.32;13.45;;;3.40;99.90;;;;;;5020361;28;20648;-43
2023/02/25 12:44:24;;;;;;;16.35;15.45;;;3.40;99.90;;;;;;5019944;28;20183;-43
2023/02/25 12:47:06;;;;;;;16.20;15.20;;;3.50;99.90;;;;;;5020297;28;20192;-42
2023/02/25 12:49:32;;;;;;;15.70;14.80;;;3.50;99.90;;;;;;5019586;28;20185;-42
2023/02/25 12:52:16;;;;;;;14.93;14.23;;;3.40;99.90;;;;;;5020070;28;20179;-43